Time;durP1;ratioP1;P1;durP2;ratioP2;P2;SDS_P1;SDS_P2;PMS_P1;PMS_P2;Temp;Humidity;BMP_temperature;BMP_pressure;BME280_temperature;BME280_humidity;BME280_pressure;Samples;Min_cycle;Max_cycle;Signal;HPM_P1;HPM_P2
2022/03/24 00:02:25;;;;;;;197.10;95.18;;;2.60;1.00;;;;;;5076720;28;20040;-76
2022/03/24 00:04:53;;;;;;;192.80;92.63;;;2.60;1.00;;;;;;5072303;28;20045;-76
2022/03/24 00:07:20;;;;;;;172.40;86.57;;;2.60;1.00;;;;;;5055761;28;20051;-76
2022/03/24 00:09:48;;;;;;;189.23;93.28;;;2.50;1.00;;;;;;5054713;28;20056;-78
2022/03/24 00:12:16;;;;;;;189.95;98.32;;;2.40;1.00;;;;;;5055655;28;20041;-77
2022/03/24 00:14:44;;;;;;;179.75;93.28;;;2.30;1.00;;;;;;5061798;28;20048;-76
2022/03/24 00:17:13;;;;;;;174.40;90.45;;;2.30;1.00;;;;;;5074371;28;20049;-77
2022/03/24 00:19:41;;;;;;;175.23;92.57;;;2.10;1.00;;;;;;5075918;28;20094;-77
2022/03/24 00:22:09;;;;;;;161.65;87.70;;;2.10;1.00;;;;;;5076130;28;20384;-78
2022/03/24 00:24:37;;;;;;;154.23;83.32;;;2.20;1.00;;;;;;5073762;28;20101;-77
2022/03/24 00:27:05;;;;;;;178.23;88.55;;;2.20;1.00;;;;;;5076738;28;20380;-77
2022/03/24 00:29:33;;;;;;;165.77;84.90;;;2.20;1.00;;;;;;5065013;28;20052;-77
2022/03/24 00:32:00;;;;;;;176.73;87.30;;;2.10;1.00;;;;;;5055806;28;20160;-77
2022/03/24 00:34:29;;;;;;;165.07;80.95;;;2.10;1.00;;;;;;5056892;28;20566;-77
2022/03/24 00:36:57;;;;;;;168.23;80.70;;;2.10;1.00;;;;;;5075372;28;20057;-76
2022/03/24 00:39:25;;;;;;;164.52;77.43;;;2.00;1.00;;;;;;5076291;28;20051;-76
2022/03/24 00:41:52;;;;;;;176.38;87.05;;;2.00;1.00;;;;;;5074978;28;20499;-77
2022/03/24 00:44:21;;;;;;;173.82;83.43;;;2.00;1.00;;;;;;5075847;28;20047;-77
2022/03/24 00:46:50;;;;;;;166.50;81.88;;;2.00;1.00;;;;;;5082991;28;20063;-77
2022/03/24 00:49:17;;;;;;;161.15;77.45;;;1.90;1.00;;;;;;5083497;28;20151;-77
2022/03/24 00:51:46;;;;;;;154.18;78.57;;;1.90;1.00;;;;;;5084860;28;20057;-76
2022/03/24 00:54:14;;;;;;;157.23;79.32;;;1.90;1.00;;;;;;5084339;28;20044;-77
2022/03/24 00:56:41;;;;;;;156.10;81.45;;;1.90;1.00;;;;;;5083799;28;20135;-76
2022/03/24 00:59:10;;;;;;;156.75;80.90;;;1.90;1.00;;;;;;5063632;28;20120;-78
2022/03/24 01:01:39;;;;;;;160.07;81.20;;;1.80;1.00;;;;;;5065330;28;20052;-76
2022/03/24 01:04:07;;;;;;;150.27;81.47;;;1.70;1.00;;;;;;5059679;28;20044;-77
2022/03/24 01:06:35;;;;;;;142.45;74.45;;;1.60;1.00;;;;;;5060664;28;20075;-77
2022/03/24 01:09:05;;;;;;;143.85;77.05;;;1.50;1.00;;;;;;5060605;28;20045;-77
2022/03/24 01:11:33;;;;;;;136.00;68.68;;;1.50;1.00;;;;;;5062993;28;20049;-77
2022/03/24 01:14:01;;;;;;;122.15;69.30;;;1.40;1.00;;;;;;5060726;28;20045;-77
2022/03/24 01:16:30;;;;;;;123.10;67.78;;;1.50;1.00;;;;;;5059857;28;20057;-78
2022/03/24 01:18:58;;;;;;;118.90;66.85;;;1.50;1.00;;;;;;5055063;28;20045;-77
2022/03/24 01:21:26;;;;;;;116.05;63.92;;;1.40;1.00;;;;;;5053714;28;20049;-77
2022/03/24 01:23:54;;;;;;;116.90;63.90;;;1.40;1.00;;;;;;5054092;28;20041;-77
2022/03/24 01:26:23;;;;;;;125.22;65.70;;;1.40;1.00;;;;;;5057058;28;20551;-76
2022/03/24 01:28:53;;;;;;;131.48;65.15;;;1.40;1.00;;;;;;5056232;28;20040;-77
2022/03/24 01:31:20;;;;;;;114.07;62.60;;;1.40;1.00;;;;;;5053888;28;20047;-76
2022/03/24 01:33:48;;;;;;;104.90;57.72;;;1.40;1.00;;;;;;5053884;28;20129;-77
2022/03/24 01:36:18;;;;;;;115.32;60.05;;;1.40;1.00;;;;;;5053016;28;20131;-78
2022/03/24 01:38:46;;;;;;;114.53;61.72;;;1.40;1.00;;;;;;5055624;28;20125;-79
2022/03/24 01:41:14;;;;;;;122.55;64.03;;;1.30;1.00;;;;;;5052945;28;20468;-77
2022/03/24 01:43:43;;;;;;;123.15;65.88;;;1.30;1.00;;;;;;5072931;28;20040;-77
2022/03/24 01:46:11;;;;;;;117.80;61.17;;;1.20;1.00;;;;;;5075963;28;20044;-77
2022/03/24 01:48:43;;;;;;;107.55;56.30;;;1.30;1.00;;;;;;5077340;28;20054;-77
2022/03/24 01:51:10;;;;;;;100.78;50.42;;;1.30;1.00;;;;;;5072099;28;20056;-77
2022/03/24 01:53:38;;;;;;;100.28;52.58;;;1.30;1.00;;;;;;5070118;28;20040;-76
2022/03/24 01:56:07;;;;;;;110.00;52.80;;;1.30;1.00;;;;;;5072631;28;20049;-77
2022/03/24 01:58:38;;;;;;;110.00;52.42;;;1.20;1.00;;;;;;5070822;28;20045;-77
2022/03/24 02:01:29;;;;;;;113.78;56.22;;;1.20;1.00;;;;;;5077451;28;20104;-77
2022/03/24 02:03:58;;;;;;;129.50;62.55;;;1.10;1.00;;;;;;5077136;28;20086;-78
2022/03/24 02:06:26;;;;;;;123.40;63.10;;;1.20;1.00;;;;;;5060285;28;20068;-78
2022/03/24 02:08:55;;;;;;;118.45;57.22;;;1.10;1.00;;;;;;5057346;28;20049;-76
2022/03/24 02:11:22;;;;;;;115.25;57.17;;;1.00;1.00;;;;;;5057172;28;20376;-78
2022/03/24 02:13:50;;;;;;;109.15;54.92;;;1.00;1.00;;;;;;5056696;28;20052;-77
2022/03/24 02:16:19;;;;;;;98.05;51.70;;;1.00;2.60;;;;;;5056524;28;20412;-78
2022/03/24 02:18:47;;;;;;;112.03;56.15;;;1.10;10.30;;;;;;5056502;28;20042;-77
2022/03/24 02:21:16;;;;;;;110.13;54.03;;;1.10;9.50;;;;;;5073765;28;20045;-76
2022/03/24 02:23:46;;;;;;;108.78;52.80;;;1.00;1.00;;;;;;5076150;28;20048;-78
2022/03/24 02:26:13;;;;;;;108.00;52.35;;;1.00;3.40;;;;;;5076396;28;20101;-76
2022/03/24 02:28:42;;;;;;;92.85;49.22;;;1.00;5.30;;;;;;5064564;28;20045;-76
2022/03/24 02:31:10;;;;;;;108.35;52.60;;;1.00;11.80;;;;;;5057788;28;20059;-77
2022/03/24 02:33:38;;;;;;;119.20;60.97;;;0.90;22.00;;;;;;5058036;28;20041;-78
2022/03/24 02:36:07;;;;;;;128.23;60.40;;;0.90;23.10;;;;;;5060396;28;20083;-78
2022/03/24 02:38:35;;;;;;;137.52;69.65;;;0.90;29.20;;;;;;5058158;28;20419;-77
2022/03/24 02:41:04;;;;;;;139.25;71.53;;;0.90;28.30;;;;;;5055752;28;20139;-77
2022/03/24 02:43:32;;;;;;;131.82;67.60;;;0.80;30.90;;;;;;5055150;28;20116;-77
2022/03/24 02:45:59;;;;;;;119.82;61.17;;;0.80;39.50;;;;;;5057026;28;20045;-77
2022/03/24 02:48:28;;;;;;;108.80;55.83;;;0.80;38.00;;;;;;5057935;28;20053;-77
2022/03/24 02:50:59;;;;;;;102.40;51.80;;;0.80;44.60;;;;;;5056756;28;20045;-78
2022/03/24 02:53:27;;;;;;;105.65;51.47;;;0.70;52.90;;;;;;5055893;28;20037;-77
2022/03/24 02:55:55;;;;;;;97.03;48.63;;;0.70;65.10;;;;;;5058004;28;20447;-77
2022/03/24 02:58:24;;;;;;;91.20;46.90;;;0.70;79.10;;;;;;5074760;28;20070;-74
2022/03/24 03:00:53;;;;;;;87.10;44.30;;;0.70;83.30;;;;;;5074846;28;20059;-74
2022/03/24 03:03:21;;;;;;;90.85;43.50;;;0.70;76.40;;;;;;5073059;28;20037;-74
2022/03/24 03:05:48;;;;;;;95.32;47.85;;;0.60;82.50;;;;;;5072304;28;20094;-73
2022/03/24 03:08:18;;;;;;;95.93;49.97;;;0.60;94.00;;;;;;5069428;28;20499;-75
2022/03/24 03:10:45;;;;;;;87.70;47.78;;;0.60;98.50;;;;;;5062428;28;20053;-75
2022/03/24 03:13:13;;;;;;;94.18;50.92;;;0.60;99.90;;;;;;5063314;28;20051;-74
2022/03/24 03:15:42;;;;;;;94.40;50.42;;;0.60;99.80;;;;;;5072709;28;20052;-74
2022/03/24 03:18:10;;;;;;;97.80;52.05;;;0.60;99.90;;;;;;5071417;28;20056;-74
2022/03/24 03:20:37;;;;;;;108.15;54.88;;;0.50;99.90;;;;;;5073130;28;20048;-74
2022/03/24 03:23:05;;;;;;;96.80;50.20;;;0.50;99.20;;;;;;5073633;28;20083;-73
2022/03/24 03:25:33;;;;;;;100.90;52.40;;;0.40;99.90;;;;;;5071205;28;20052;-73
2022/03/24 03:28:00;;;;;;;100.28;54.10;;;0.30;99.90;;;;;;5067093;28;20045;-74
2022/03/24 03:30:28;;;;;;;95.60;50.20;;;0.30;99.90;;;;;;5073880;28;20060;-74
2022/03/24 03:32:57;;;;;;;105.35;53.58;;;0.20;99.90;;;;;;5073172;28;20044;-73
2022/03/24 03:35:24;;;;;;;103.90;54.67;;;0.20;99.90;;;;;;5075635;28;20036;-73
2022/03/24 03:37:52;;;;;;;94.90;50.38;;;0.30;99.90;;;;;;5065829;28;20061;-74
2022/03/24 03:40:20;;;;;;;90.13;45.13;;;0.30;99.90;;;;;;5075236;28;20056;-74
2022/03/24 03:42:51;;;;;;;81.63;40.40;;;0.30;99.90;;;;;;5075313;28;20064;-74
2022/03/24 03:45:19;;;;;;;127.38;61.40;;;0.30;99.90;;;;;;5075000;28;20045;-74
2022/03/24 03:47:47;;;;;;;110.40;55.97;;;0.30;99.90;;;;;;5074829;28;20089;-74
2022/03/24 03:50:16;;;;;;;71.75;41.38;;;0.20;99.90;;;;;;5075254;28;20175;-75
2022/03/24 03:52:44;;;;;;;78.32;41.03;;;0.20;99.90;;;;;;5067487;28;20068;-73
2022/03/24 03:55:11;;;;;;;81.30;45.40;;;0.20;99.90;;;;;;5074101;28;20503;-75
2022/03/24 03:57:39;;;;;;;87.30;46.08;;;0.50;99.90;;;;;;5074906;28;20052;-74
2022/03/24 04:02:49;;;;;;;88.03;47.03;;;0.40;99.90;;;;;;5074536;28;20139;-73
2022/03/24 04:05:23;;;;;;;93.25;51.80;;;0.20;99.90;;;;;;5074427;28;20037;-74
2022/03/24 04:07:51;;;;;;;96.35;53.30;;;0.20;99.90;;;;;;5072975;28;20454;-74
2022/03/24 04:10:21;;;;;;;91.18;51.47;;;0.10;99.90;;;;;;5072674;28;20391;-77
2022/03/24 04:12:50;;;;;;;95.65;54.33;;;0.00;99.90;;;;;;5055494;28;20043;-74
2022/03/24 04:15:18;;;;;;;92.18;53.92;;;-0.20;99.90;;;;;;5056367;28;20041;-73
2022/03/24 04:17:45;;;;;;;95.43;52.90;;;-0.10;99.90;;;;;;5054306;28;20499;-73
2022/03/24 04:20:13;;;;;;;100.10;54.17;;;-0.10;99.90;;;;;;5055273;28;20057;-74
2022/03/24 04:22:43;;;;;;;98.15;56.00;;;0.00;99.90;;;;;;5056099;28;20057;-73
2022/03/24 04:25:10;;;;;;;91.97;48.15;;;0.00;99.90;;;;;;5057221;28;20068;-73
2022/03/24 04:27:38;;;;;;;92.80;50.35;;;0.00;99.90;;;;;;5066186;28;20037;-73
2022/03/24 04:30:06;;;;;;;85.07;45.35;;;0.00;99.90;;;;;;5072051;28;20044;-75
2022/03/24 04:32:34;;;;;;;81.90;45.42;;;-0.10;99.90;;;;;;5072603;28;20431;-73
2022/03/24 04:35:02;;;;;;;82.80;44.40;;;-0.20;99.90;;;;;;5073831;28;20552;-74
2022/03/24 04:37:29;;;;;;;87.68;44.05;;;-0.20;99.90;;;;;;5072042;28;20488;-73
2022/03/24 04:39:58;;;;;;;91.43;44.63;;;-0.20;99.90;;;;;;5062952;28;20500;-74
2022/03/24 04:42:26;;;;;;;95.57;49.22;;;-0.30;99.90;;;;;;5072394;28;20049;-74
2022/03/24 04:44:54;;;;;;;96.57;50.95;;;-0.30;99.90;;;;;;5074290;28;20094;-75
2022/03/24 04:47:21;;;;;;;109.70;57.40;;;-0.30;99.90;;;;;;5065070;28;20068;-74
2022/03/24 04:49:49;;;;;;;115.32;58.85;;;-0.30;99.90;;;;;;5072258;28;20073;-74
2022/03/24 04:52:17;;;;;;;103.60;54.55;;;-0.30;99.90;;;;;;5070800;28;20045;-74
2022/03/24 04:54:45;;;;;;;101.32;54.70;;;-0.30;99.90;;;;;;5053076;28;20045;-75
2022/03/24 04:57:15;;;;;;;117.57;58.88;;;-0.30;99.90;;;;;;5066806;28;20045;-74
2022/03/24 04:59:43;;;;;;;105.88;57.08;;;-0.20;99.90;;;;;;5080189;28;20513;-74
2022/03/24 05:02:15;;;;;;;110.88;56.33;;;-0.20;99.90;;;;;;5085067;28;20505;-74
2022/03/24 05:04:43;;;;;;;95.63;46.38;;;-0.10;99.90;;;;;;5078944;28;20068;-74
2022/03/24 05:07:11;;;;;;;110.78;53.88;;;-0.20;99.90;;;;;;5071762;28;20045;-75
2022/03/24 05:09:40;;;;;;;96.60;49.70;;;-0.20;99.90;;;;;;5065717;28;20048;-74
2022/03/24 05:12:09;;;;;;;118.03;55.10;;;-0.20;99.90;;;;;;5072249;28;20051;-73
2022/03/24 05:14:38;;;;;;;114.07;57.15;;;-0.20;99.90;;;;;;5072386;28;20068;-74
2022/03/24 05:17:06;;;;;;;108.63;56.60;;;-0.10;99.90;;;;;;5073188;28;20037;-73
2022/03/24 05:19:34;;;;;;;115.03;59.05;;;-0.10;99.90;;;;;;5073137;28;20086;-74
2022/03/24 05:22:02;;;;;;;140.15;61.35;;;-0.10;99.90;;;;;;5072070;28;20048;-74
2022/03/24 05:24:30;;;;;;;156.73;74.85;;;0.00;99.90;;;;;;5067131;28;20049;-74
2022/03/24 05:26:57;;;;;;;154.45;75.45;;;0.00;99.90;;;;;;5066619;28;20499;-74
2022/03/24 05:29:27;;;;;;;145.07;68.25;;;0.10;99.90;;;;;;5072320;28;20047;-73
2022/03/24 05:31:56;;;;;;;138.27;68.68;;;0.20;99.90;;;;;;5056731;28;20067;-75
2022/03/24 05:34:24;;;;;;;136.30;69.18;;;0.30;99.90;;;;;;5063139;28;20037;-75
2022/03/24 05:36:53;;;;;;;148.82;74.03;;;0.40;99.90;;;;;;5085472;22;20729;-76
2022/03/24 05:39:22;;;;;;;173.02;82.07;;;0.60;99.90;;;;;;5043278;28;20036;-75
2022/03/24 05:41:52;;;;;;;182.05;85.15;;;0.70;99.90;;;;;;5065364;28;20025;-76
2022/03/24 05:44:19;;;;;;;212.13;99.65;;;0.80;99.90;;;;;;5056655;28;20106;-75
2022/03/24 05:46:48;;;;;;;197.40;92.50;;;0.80;99.90;;;;;;5079613;28;20056;-76
2022/03/24 05:49:20;;;;;;;177.18;85.35;;;0.90;99.90;;;;;;5040644;28;20059;-75
2022/03/24 05:52:07;;;;;;;143.05;70.82;;;1.00;99.90;;;;;;5070232;28;20056;-75
2022/03/24 05:54:34;;;;;;;133.32;67.53;;;1.20;99.90;;;;;;5046868;28;20041;-76
2022/03/24 05:57:02;;;;;;;122.05;62.80;;;1.30;94.40;;;;;;5050671;28;20115;-76
2022/03/24 05:59:30;;;;;;;118.13;60.35;;;1.70;78.90;;;;;;5051062;28;20079;-76
2022/03/24 06:01:58;;;;;;;107.45;56.05;;;2.00;44.80;;;;;;5052081;28;20479;-76
2022/03/24 06:04:30;;;;;;;103.20;55.88;;;2.30;12.00;;;;;;5073526;28;20055;-76
2022/03/24 06:07:01;;;;;;;106.90;54.97;;;2.50;1.00;;;;;;5055878;28;20045;-76
2022/03/24 06:09:29;;;;;;;99.10;52.95;;;2.80;1.00;;;;;;5047280;28;20493;-75
2022/03/24 06:11:57;;;;;;;108.38;52.65;;;2.90;1.00;;;;;;5058923;28;20144;-76
2022/03/24 06:14:25;;;;;;;94.38;50.03;;;3.20;1.00;;;;;;5054280;28;20048;-75
2022/03/24 06:16:53;;;;;;;103.55;54.00;;;3.30;1.00;;;;;;5040780;28;20395;-75
2022/03/24 06:19:23;;;;;;;122.35;60.33;;;3.50;1.00;;;;;;5038820;28;20083;-77
2022/03/24 06:21:57;;;;;;;133.03;66.47;;;3.70;1.00;;;;;;5074775;28;20086;-77
2022/03/24 06:24:27;;;;;;;204.30;89.45;;;3.90;1.00;;;;;;5070176;28;20797;-77
2022/03/24 06:26:55;;;;;;;232.63;102.47;;;4.00;1.00;;;;;;5061445;28;20045;-77
2022/03/24 06:29:22;;;;;;;237.60;103.35;;;4.20;1.00;;;;;;5042990;28;20051;-77
2022/03/24 06:31:50;;;;;;;228.73;100.90;;;4.40;1.00;;;;;;5047647;28;20055;-77
2022/03/24 06:34:18;;;;;;;242.20;110.93;;;4.50;1.00;;;;;;5064732;28;20043;-76
2022/03/24 06:36:45;;;;;;;192.25;89.95;;;4.70;1.00;;;;;;5065357;28;20036;-76
2022/03/24 06:39:14;;;;;;;164.65;77.70;;;4.90;1.00;;;;;;5053055;28;20568;-77
2022/03/24 06:41:42;;;;;;;155.43;74.55;;;5.20;1.00;;;;;;5062068;28;20097;-76
2022/03/24 06:44:10;;;;;;;161.10;79.45;;;5.30;1.00;;;;;;5061585;28;20414;-76
2022/03/24 06:46:38;;;;;;;159.48;74.90;;;5.60;1.00;;;;;;5067525;28;20547;-76
2022/03/24 06:49:06;;;;;;;152.32;74.30;;;5.80;1.00;;;;;;5076542;28;20055;-75
2022/03/24 06:51:35;;;;;;;145.18;73.43;;;6.00;1.00;;;;;;5058652;28;20059;-76
2022/03/24 06:54:02;;;;;;;169.40;78.65;;;6.20;1.00;;;;;;5057142;28;20055;-76
2022/03/24 06:56:31;;;;;;;137.85;72.30;;;6.40;1.00;;;;;;5074728;28;20055;-76
2022/03/24 06:58:59;;;;;;;133.82;68.82;;;6.60;1.00;;;;;;5057855;28;20064;-75
2022/03/24 07:01:26;;;;;;;128.18;64.60;;;6.70;1.00;;;;;;5051028;28;20059;-76
2022/03/24 07:03:54;;;;;;;114.78;60.63;;;6.80;1.00;;;;;;5066686;28;20045;-75
2022/03/24 07:06:21;;;;;;;118.38;62.28;;;7.10;1.00;;;;;;5067919;28;20081;-76
2022/03/24 07:08:49;;;;;;;114.28;61.88;;;7.40;1.00;;;;;;5075337;28;20052;-74
2022/03/24 07:11:17;;;;;;;109.45;61.05;;;7.60;1.00;;;;;;5057687;28;20052;-75
2022/03/24 07:13:51;;;;;;;95.63;51.45;;;7.90;1.00;;;;;;5069993;28;20086;-76
2022/03/24 07:16:19;;;;;;;90.25;46.78;;;8.20;1.00;;;;;;5057783;28;20040;-75
2022/03/24 07:18:47;;;;;;;95.22;43.42;;;8.30;1.00;;;;;;5058237;28;20503;-76
2022/03/24 07:21:14;;;;;;;76.20;41.38;;;8.40;1.00;;;;;;5076082;28;20044;-76
2022/03/24 07:23:42;;;;;;;64.05;35.65;;;8.50;1.00;;;;;;5076154;28;20478;-75
2022/03/24 07:26:09;;;;;;;82.93;41.22;;;8.70;1.00;;;;;;5058200;28;20131;-76
2022/03/24 07:28:37;;;;;;;85.50;42.97;;;8.80;1.00;;;;;;5076187;28;20070;-75
2022/03/24 07:31:11;;;;;;;80.15;42.75;;;9.00;1.00;;;;;;5076751;28;20048;-74
2022/03/24 07:33:39;;;;;;;79.00;39.85;;;9.30;1.00;;;;;;5057642;28;20400;-77
2022/03/24 07:36:07;;;;;;;74.00;38.13;;;9.70;1.00;;;;;;5075665;28;20055;-76
2022/03/24 07:38:35;;;;;;;65.32;37.17;;;10.10;1.00;;;;;;5057524;28;20121;-75
2022/03/24 07:41:03;;;;;;;65.50;37.25;;;10.40;1.00;;;;;;5058353;28;20056;-75
2022/03/24 07:43:30;;;;;;;65.93;35.67;;;10.80;1.00;;;;;;5075198;28;20487;-75
2022/03/24 07:45:58;;;;;;;60.97;31.40;;;11.00;1.00;;;;;;5075929;28;20100;-74
2022/03/24 07:48:27;;;;;;;67.38;33.70;;;11.30;1.00;;;;;;5057977;28;20051;-74
2022/03/24 07:50:59;;;;;;;59.15;30.90;;;11.40;1.00;;;;;;5078950;28;20041;-74
2022/03/24 07:54:00;;;;;;;63.95;32.88;;;11.40;1.00;;;;;;5085716;28;20052;-74
2022/03/24 07:56:28;;;;;;;57.05;30.23;;;11.40;1.00;;;;;;5082640;28;20048;-75
2022/03/24 07:58:57;;;;;;;88.80;43.22;;;11.70;1.00;;;;;;5057288;28;20139;-75
2022/03/24 08:01:30;;;;;;;62.60;32.38;;;11.80;1.00;;;;;;5066144;28;20091;-74
2022/03/24 08:04:02;;;;;;;60.05;32.75;;;12.00;1.00;;;;;;5064921;28;20142;-75
2022/03/24 08:06:31;;;;;;;59.10;32.03;;;12.20;1.00;;;;;;5055496;28;20097;-75
2022/03/24 08:08:59;;;;;;;61.80;33.05;;;12.40;1.00;;;;;;5037183;28;20055;-75
2022/03/24 08:11:27;;;;;;;59.38;31.23;;;12.60;1.00;;;;;;5054605;28;20064;-75
2022/03/24 08:13:55;;;;;;;58.17;32.22;;;12.70;1.00;;;;;;5054820;28;20053;-75
2022/03/24 08:16:23;;;;;;;52.47;29.92;;;12.60;1.00;;;;;;5053239;28;20419;-75
2022/03/24 08:18:50;;;;;;;53.13;28.20;;;12.80;1.00;;;;;;5061854;28;20492;-76
2022/03/24 08:21:19;;;;;;;54.22;26.45;;;12.90;1.00;;;;;;5071921;28;20126;-75
2022/03/24 08:23:46;;;;;;;49.47;26.30;;;13.10;1.00;;;;;;5074955;28;20043;-74
2022/03/24 08:26:14;;;;;;;57.58;29.70;;;13.40;1.00;;;;;;5074717;28;20044;-74
2022/03/24 08:28:41;;;;;;;47.65;26.25;;;13.60;1.00;;;;;;5074411;28;20123;-75
2022/03/24 08:31:12;;;;;;;60.55;31.08;;;13.90;1.00;;;;;;5074770;28;20036;-76
2022/03/24 08:33:42;;;;;;;70.05;32.88;;;14.00;1.00;;;;;;5057663;28;20400;-75
2022/03/24 08:36:10;;;;;;;58.42;30.55;;;14.10;1.00;;;;;;5075455;28;20044;-75
2022/03/24 08:38:39;;;;;;;61.55;33.55;;;14.30;1.00;;;;;;5078795;28;20110;-74
2022/03/24 08:41:06;;;;;;;53.50;32.30;;;14.50;1.00;;;;;;5082431;28;20040;-76
2022/03/24 08:43:34;;;;;;;62.22;33.30;;;14.60;1.00;;;;;;5083267;28;20048;-75
2022/03/24 08:46:02;;;;;;;57.90;35.72;;;14.80;1.00;;;;;;5075840;28;20442;-76
2022/03/24 08:48:29;;;;;;;73.68;36.92;;;15.00;1.00;;;;;;5075543;28;20055;-74
2022/03/24 08:50:57;;;;;;;58.00;36.45;;;15.10;1.00;;;;;;5074496;28;20040;-74
2022/03/24 08:53:24;;;;;;;64.68;38.25;;;15.00;1.00;;;;;;5056428;28;20407;-75
2022/03/24 08:55:55;;;;;;;70.10;39.17;;;15.10;1.00;;;;;;5077654;28;20048;-75
2022/03/24 08:58:24;;;;;;;88.32;52.65;;;15.10;1.00;;;;;;5081995;28;20518;-75
2022/03/24 09:00:52;;;;;;;83.25;49.03;;;15.20;1.00;;;;;;5076591;28;20048;-74
2022/03/24 09:03:19;;;;;;;85.03;49.22;;;15.20;1.00;;;;;;5074105;28;20468;-75
2022/03/24 09:05:47;;;;;;;93.93;49.55;;;15.30;1.00;;;;;;5073659;28;20040;-75
2022/03/24 09:08:14;;;;;;;73.43;42.67;;;15.40;1.00;;;;;;5055659;28;20036;-75
2022/03/24 09:10:43;;;;;;;64.32;36.22;;;15.30;1.00;;;;;;5055678;28;20054;-75
2022/03/24 09:13:12;;;;;;;61.85;35.22;;;15.30;1.00;;;;;;5073302;28;20071;-75
2022/03/24 09:15:40;;;;;;;56.60;33.78;;;15.30;1.00;;;;;;5073806;28;20040;-75
2022/03/24 09:18:10;;;;;;;64.55;33.15;;;15.40;1.00;;;;;;5055435;28;20495;-76
2022/03/24 09:20:37;;;;;;;61.25;27.95;;;15.60;1.00;;;;;;5055700;28;20068;-75
2022/03/24 09:23:04;;;;;;;44.55;22.02;;;15.60;1.00;;;;;;5073274;28;20055;-75
2022/03/24 09:25:33;;;;;;;41.53;20.77;;;15.50;1.00;;;;;;5073575;28;20055;-74
2022/03/24 09:28:00;;;;;;;42.50;22.45;;;15.60;1.00;;;;;;5073684;28;20517;-74
2022/03/24 09:30:29;;;;;;;37.33;19.50;;;15.70;1.00;;;;;;5055656;28;20078;-74
2022/03/24 09:32:56;;;;;;;41.85;21.70;;;15.80;1.00;;;;;;5055581;28;20487;-74
2022/03/24 09:35:24;;;;;;;35.97;19.73;;;15.70;1.00;;;;;;5074048;28;20033;-75
2022/03/24 09:37:51;;;;;;;42.40;20.65;;;15.80;1.00;;;;;;5073473;28;20056;-75
2022/03/24 09:40:19;;;;;;;36.03;18.45;;;15.80;1.00;;;;;;5074065;28;20053;-74
2022/03/24 09:42:48;;;;;;;35.83;19.35;;;15.90;1.00;;;;;;5074200;28;20052;-76
2022/03/24 09:45:16;;;;;;;36.75;18.85;;;16.00;1.00;;;;;;5056025;28;20098;-75
2022/03/24 09:47:45;;;;;;;33.25;19.27;;;16.10;1.00;;;;;;5073804;28;20052;-74
2022/03/24 09:50:14;;;;;;;79.05;21.48;;;16.10;1.00;;;;;;5073386;28;20510;-76
2022/03/24 09:52:42;;;;;;;35.78;17.40;;;16.20;1.00;;;;;;5073291;28;20053;-74
2022/03/24 09:55:11;;;;;;;34.30;17.23;;;16.30;1.00;;;;;;5074704;28;20052;-76
2022/03/24 09:57:38;;;;;;;34.63;19.60;;;16.40;1.00;;;;;;5074111;28;20055;-75
2022/03/24 10:00:07;;;;;;;31.60;18.42;;;16.50;1.00;;;;;;5073904;28;20502;-76
2022/03/24 10:02:35;;;;;;;24.40;12.23;;;16.60;1.00;;;;;;5084324;28;20044;-75
2022/03/24 10:05:08;;;;;;;28.40;12.93;;;16.60;1.00;;;;;;5072167;28;20078;-75
2022/03/24 10:07:45;;;;;;;23.15;12.63;;;16.60;1.00;;;;;;5077388;28;20051;-75
2022/03/24 10:10:25;;;;;;;24.92;13.45;;;16.60;1.00;;;;;;5060801;28;20171;-75
2022/03/24 10:12:52;;;;;;;25.05;12.60;;;16.60;1.00;;;;;;5077153;28;20094;-75
2022/03/24 10:15:20;;;;;;;22.48;13.68;;;16.60;1.00;;;;;;5077206;28;20036;-74
2022/03/24 10:17:53;;;;;;;26.55;13.45;;;16.60;1.00;;;;;;5076972;28;20102;-75
2022/03/24 10:20:22;;;;;;;26.88;13.10;;;16.70;1.00;;;;;;5059932;28;20123;-75
2022/03/24 10:22:58;;;;;;;27.27;14.05;;;16.70;1.00;;;;;;5076926;28;20052;-75
2022/03/24 10:25:27;;;;;;;24.77;14.30;;;16.80;1.00;;;;;;5078888;28;20040;-75
2022/03/24 10:28:04;;;;;;;25.67;15.35;;;16.90;1.00;;;;;;5086808;28;20096;-75
2022/03/24 10:30:47;;;;;;;29.98;15.38;;;17.00;1.00;;;;;;5090719;28;20094;-75
2022/03/24 10:33:28;;;;;;;26.23;15.30;;;17.00;1.00;;;;;;5079685;28;20040;-75
2022/03/24 10:36:14;;;;;;;33.72;16.63;;;17.10;1.00;;;;;;5089228;28;20044;-75
2022/03/24 10:38:42;;;;;;;30.08;16.42;;;17.20;1.00;;;;;;5077533;28;20082;-74
2022/03/24 10:41:15;;;;;;;28.90;15.90;;;17.40;1.00;;;;;;5077880;28;20407;-75
2022/03/24 10:43:42;;;;;;;34.78;15.70;;;17.50;1.00;;;;;;5077135;28;20063;-76
2022/03/24 10:46:14;;;;;;;30.63;16.70;;;17.60;1.00;;;;;;5079851;28;20051;-75
2022/03/24 10:48:42;;;;;;;29.55;15.90;;;17.60;1.00;;;;;;5094280;28;20064;-76
2022/03/24 10:51:11;;;;;;;34.05;16.63;;;17.70;1.00;;;;;;5096475;28;20119;-75
2022/03/24 10:53:43;;;;;;;43.88;17.42;;;17.80;1.00;;;;;;5096605;28;20024;-75
2022/03/24 10:56:18;;;;;;;19.58;12.55;;;17.80;1.00;;;;;;5081523;28;20064;-75
2022/03/24 10:58:49;;;;;;;25.13;13.13;;;17.80;1.00;;;;;;5095924;28;20040;-74
2022/03/24 11:01:20;;;;;;;20.05;10.77;;;17.80;1.00;;;;;;5078881;28;20039;-74
2022/03/24 11:03:49;;;;;;;21.58;10.93;;;17.90;1.00;;;;;;5080790;28;20120;-75
2022/03/24 11:06:19;;;;;;;26.10;13.00;;;18.00;1.00;;;;;;5098719;28;20060;-75
2022/03/24 11:08:53;;;;;;;25.50;12.77;;;18.00;1.00;;;;;;5098342;28;20112;-75
2022/03/24 11:11:21;;;;;;;32.25;14.85;;;18.10;1.00;;;;;;5080460;28;20079;-75
2022/03/24 11:13:51;;;;;;;24.15;14.05;;;18.10;1.00;;;;;;5078874;28;20048;-75
2022/03/24 11:16:20;;;;;;;24.48;13.02;;;18.10;1.00;;;;;;5085670;28;20056;-75
2022/03/24 11:18:48;;;;;;;26.80;12.95;;;18.20;1.00;;;;;;5072366;28;20032;-75
2022/03/24 11:21:23;;;;;;;22.83;13.35;;;18.30;1.00;;;;;;5084233;28;20106;-75
2022/03/24 11:23:54;;;;;;;31.38;14.68;;;18.40;1.00;;;;;;5077583;28;20050;-75
2022/03/24 11:26:22;;;;;;;36.88;15.15;;;18.40;1.00;;;;;;5077068;28;20044;-75
2022/03/24 11:28:50;;;;;;;33.13;13.88;;;18.50;1.00;;;;;;5076598;28;20044;-73
2022/03/24 11:31:19;;;;;;;23.10;13.05;;;18.50;1.00;;;;;;5076823;28;20072;-75
2022/03/24 11:33:48;;;;;;;24.55;13.00;;;18.40;1.00;;;;;;5058169;28;20053;-74
2022/03/24 11:36:18;;;;;;;20.45;12.02;;;18.30;1.00;;;;;;5076687;28;20040;-74
2022/03/24 11:38:50;;;;;;;21.17;13.63;;;18.40;1.00;;;;;;5087145;22;20059;-79
2022/03/24 11:41:24;;;;;;;18.95;11.38;;;18.40;1.00;;;;;;5081737;28;20097;-79
2022/03/24 11:43:54;;;;;;;24.58;12.43;;;18.40;1.00;;;;;;5083692;28;20059;-78
2022/03/24 11:46:30;;;;;;;24.83;13.85;;;18.50;1.00;;;;;;5082376;28;20047;-79
2022/03/24 11:49:23;;;;;;;33.75;13.27;;;18.60;1.00;;;;;;5081549;28;20071;-79
2022/03/24 11:52:22;;;;;;;22.90;11.80;;;18.60;1.00;;;;;;5070350;28;20499;-78
2022/03/24 11:54:53;;;;;;;17.90;11.68;;;18.70;1.00;;;;;;5080410;28;20411;-79
2022/03/24 11:57:31;;;;;;;23.33;11.73;;;18.80;1.00;;;;;;5078834;28;20036;-79
2022/03/24 12:00:36;;;;;;;25.05;13.57;;;18.70;1.00;;;;;;5081251;28;20040;-79
2022/03/24 12:03:41;;;;;;;19.35;12.70;;;18.80;1.00;;;;;;5083376;28;20063;-78
2022/03/24 12:06:10;;;;;;;23.20;12.25;;;18.90;1.00;;;;;;5069402;28;20040;-78
2022/03/24 12:08:50;;;;;;;19.52;11.95;;;18.90;1.00;;;;;;5099258;28;20059;-78
2022/03/24 12:11:44;;;;;;;25.85;13.45;;;18.90;1.00;;;;;;5101340;28;20055;-79
2022/03/24 12:14:19;;;;;;;20.20;13.30;;;18.90;1.00;;;;;;5102350;28;20040;-77
2022/03/24 12:16:49;;;;;;;22.77;13.57;;;19.10;1.00;;;;;;5099671;28;20040;-77
2022/03/24 12:19:47;;;;;;;31.00;15.55;;;19.10;1.00;;;;;;5100520;28;20070;-79
2022/03/24 12:22:36;;;;;;;36.60;16.08;;;19.20;1.00;;;;;;5049754;28;20067;-79
2022/03/24 12:25:26;;;;;;;22.80;14.57;;;19.40;1.00;;;;;;5107513;28;20055;-80
2022/03/24 12:28:25;;;;;;;21.10;12.45;;;19.50;1.00;;;;;;5106878;28;20040;-79
2022/03/24 12:31:10;;;;;;;22.88;12.30;;;19.50;1.00;;;;;;5107578;28;20056;-79
2022/03/24 12:33:49;;;;;;;38.17;15.27;;;19.60;1.00;;;;;;5090667;28;20047;-79
2022/03/24 12:36:38;;;;;;;27.70;14.63;;;19.60;1.00;;;;;;5111260;28;20051;-79
2022/03/24 12:39:06;;;;;;;28.73;15.23;;;19.70;1.00;;;;;;5109252;28;20108;-79
2022/03/24 12:41:35;;;;;;;25.70;13.88;;;19.70;1.00;;;;;;5091759;28;20058;-79
2022/03/24 12:44:10;;;;;;;30.00;13.90;;;19.80;1.00;;;;;;5108772;28;20107;-79
2022/03/24 12:46:44;;;;;;;37.67;14.55;;;19.80;1.00;;;;;;5108863;28;20116;-79
2022/03/24 12:49:33;;;;;;;23.83;12.63;;;19.80;1.00;;;;;;5093042;28;20044;-79
2022/03/24 12:52:05;;;;;;;22.92;12.35;;;19.80;1.00;;;;;;5106567;28;20135;-79
2022/03/24 12:54:43;;;;;;;21.98;11.85;;;19.70;1.00;;;;;;5099066;28;20055;-77